createdAt,value
2023-02-13T00:01:52.918Z,12.65
2023-02-13T00:04:19.293Z,13.50
2023-02-13T00:06:47.760Z,11.85
2023-02-13T00:09:14.831Z,14.02
2023-02-13T00:11:41.395Z,13.95
2023-02-13T00:14:07.853Z,16.20
2023-02-13T00:16:34.304Z,11.77
2023-02-13T00:19:00.669Z,11.23
2023-02-13T00:21:27.017Z,12.35
2023-02-13T00:23:53.404Z,10.95
2023-02-13T00:26:19.847Z,10.13
2023-02-13T00:28:46.304Z,9.38
2023-02-13T00:31:15.154Z,10.10
2023-02-13T00:33:41.787Z,11.18
2023-02-13T00:36:14.149Z,10.10
2023-02-13T00:38:41.340Z,10.43
2023-02-13T00:41:08.148Z,10.25
2023-02-13T00:43:35.173Z,11.45
2023-02-13T00:46:01.587Z,11.80
2023-02-13T00:48:29.571Z,10.65
2023-02-13T00:50:57.065Z,11.82
2023-02-13T00:53:25.320Z,10.65
2023-02-13T00:55:52.395Z,13.05
2023-02-13T00:58:20.149Z,12.15
2023-02-13T01:00:47.276Z,14.43
2023-02-13T01:03:16.665Z,10.68
2023-02-13T01:05:44.456Z,12.70
2023-02-13T01:08:11.760Z,10.52
2023-02-13T01:10:39.409Z,10.68
2023-02-13T01:13:06.394Z,12.60
2023-02-13T01:15:33.175Z,12.07
2023-02-13T01:18:00.815Z,13.80
2023-02-13T01:20:28.884Z,12.43
2023-02-13T01:22:55.626Z,13.07
2023-02-13T01:25:22.346Z,10.60
2023-02-13T01:27:48.702Z,12.57
2023-02-13T01:30:16.666Z,15.05
2023-02-13T01:35:10.503Z,14.05
2023-02-13T01:37:38.836Z,13.35
2023-02-13T01:40:07.088Z,15.43
2023-02-13T01:42:34.872Z,14.48
2023-02-13T01:45:04.116Z,15.48
2023-02-13T01:47:52.176Z,12.70
2023-02-13T01:50:25.393Z,13.93
2023-02-13T01:52:59.360Z,13.40
2023-02-13T01:55:26.082Z,17.02
2023-02-13T01:57:56.858Z,14.98
2023-02-13T02:00:23.438Z,18.10
2023-02-13T02:03:06.926Z,14.82
2023-02-13T02:05:34.753Z,14.93
2023-02-13T02:08:02.891Z,15.15
2023-02-13T02:10:29.290Z,20.95
2023-02-13T02:13:06.856Z,16.88
2023-02-13T02:15:33.466Z,17.05
2023-02-13T02:17:59.809Z,18.27
2023-02-13T02:21:03.454Z,15.90
2023-02-13T02:24:02.133Z,17.02
2023-02-13T02:26:40.612Z,18.27
2023-02-13T02:29:28.706Z,17.92
2023-02-13T02:32:16.828Z,17.70
2023-02-13T02:35:13.639Z,16.42
2023-02-13T02:37:45.209Z,18.20
2023-02-13T02:40:25.297Z,18.70
2023-02-13T02:43:09.194Z,17.55
2023-02-13T02:45:50.521Z,18.77
2023-02-13T02:48:35.541Z,22.75
2023-02-13T02:51:22.850Z,19.48
2023-02-13T02:53:58.144Z,17.20
2023-02-13T02:56:34.825Z,18.30
2023-02-13T02:59:24.347Z,17.80
2023-02-13T03:02:12.363Z,20.58
2023-02-13T03:04:59.979Z,20.92
2023-02-13T03:07:26.917Z,22.17
2023-02-13T03:10:16.959Z,17.42
2023-02-13T03:13:10.353Z,19.92
2023-02-13T03:16:00.196Z,16.88
2023-02-13T03:18:45.926Z,15.93
2023-02-13T03:21:36.745Z,16.65
2023-02-13T03:24:10.011Z,18.23
2023-02-13T03:27:10.031Z,18.10
2023-02-13T03:30:07.466Z,17.60
2023-02-13T03:32:42.060Z,14.32
2023-02-13T03:35:53.832Z,18.17
2023-02-13T03:38:43.544Z,19.83
2023-02-13T03:41:20.352Z,17.23
2023-02-13T03:44:07.380Z,16.27
2023-02-13T03:46:37.843Z,14.50
2023-02-13T03:49:24.853Z,14.10
2023-02-13T03:52:02.273Z,18.35
2023-02-13T03:55:08.467Z,16.90
2023-02-13T03:57:54.639Z,19.15
2023-02-13T04:00:21.484Z,17.52
2023-02-13T04:03:19.832Z,18.85
2023-02-13T04:05:52.056Z,16.02
2023-02-13T04:08:18.418Z,18.83
2023-02-13T04:10:54.590Z,15.73
2023-02-13T04:13:27.330Z,16.33
2023-02-13T04:15:57.636Z,14.00
2023-02-13T04:18:27.452Z,14.38
2023-02-13T04:20:53.833Z,18.67
2023-02-13T04:23:20.224Z,19.15
2023-02-13T04:25:49.900Z,14.43
2023-02-13T04:28:16.652Z,17.10
2023-02-13T04:30:43.984Z,16.90
2023-02-13T04:33:10.565Z,17.15
2023-02-13T04:35:36.960Z,19.83
2023-02-13T04:38:03.472Z,22.05
2023-02-13T04:40:31.076Z,17.20
2023-02-13T04:42:57.462Z,14.88
2023-02-13T04:45:23.830Z,13.35
2023-02-13T04:47:54.478Z,14.30
2023-02-13T04:50:21.180Z,14.65
2023-02-13T04:52:47.932Z,15.85
2023-02-13T04:55:14.338Z,17.27
2023-02-13T04:57:40.726Z,18.38
2023-02-13T05:00:09.864Z,14.43
2023-02-13T05:02:37.774Z,17.55
2023-02-13T05:05:05.704Z,18.52
2023-02-13T05:07:32.150Z,17.10
2023-02-13T05:09:58.496Z,19.70
2023-02-13T05:12:24.974Z,16.17
2023-02-13T05:14:51.400Z,19.33
2023-02-13T05:17:17.798Z,19.67
2023-02-13T05:19:44.105Z,19.15
2023-02-13T05:22:29.639Z,19.23
2023-02-13T05:24:55.971Z,15.82
2023-02-13T05:27:22.350Z,16.88
2023-02-13T05:29:48.662Z,24.10
2023-02-13T05:32:15.163Z,19.73
2023-02-13T05:34:41.496Z,23.77
2023-02-13T05:37:07.828Z,22.50
2023-02-13T05:39:34.176Z,21.73
2023-02-13T05:42:01.302Z,17.67
2023-02-13T05:44:27.603Z,21.85
2023-02-13T05:46:54.164Z,18.90
2023-02-13T05:49:20.564Z,15.27
2023-02-13T05:51:47.322Z,17.60
2023-02-13T05:54:13.789Z,17.35
2023-02-13T05:56:40.207Z,17.73
2023-02-13T05:59:06.773Z,19.60
2023-02-13T06:01:33.288Z,19.77
2023-02-13T06:04:02.692Z,23.40
2023-02-13T06:06:30.052Z,20.30
2023-02-13T06:08:56.397Z,15.98
2023-02-13T06:11:22.717Z,18.90
2023-02-13T06:13:49.100Z,20.55
2023-02-13T06:16:15.494Z,20.13
2023-02-13T06:18:41.953Z,23.83
2023-02-13T06:21:08.750Z,25.45
2023-02-13T06:23:35.433Z,29.17
2023-02-13T06:26:05.889Z,21.77
2023-02-13T06:28:32.614Z,19.48
2023-02-13T06:30:59.751Z,23.65
2023-02-13T06:33:26.337Z,22.23
2023-02-13T06:35:52.784Z,19.85
2023-02-13T06:38:19.134Z,20.90
2023-02-13T06:40:46.325Z,16.92
2023-02-13T06:43:13.248Z,18.95
2023-02-13T06:45:39.611Z,19.88
2023-02-13T06:48:06.057Z,21.58
2023-02-13T06:50:32.424Z,23.20
2023-02-13T06:52:59.486Z,18.77
2023-02-13T06:55:25.852Z,20.05
2023-02-13T06:57:52.248Z,18.25
2023-02-13T07:00:19.252Z,21.70
2023-02-13T07:02:46.908Z,19.33
2023-02-13T07:05:13.674Z,21.15
2023-02-13T07:07:41.878Z,18.48
2023-02-13T07:10:11.046Z,20.05
2023-02-13T07:12:37.640Z,17.17
2023-02-13T07:15:05.048Z,19.02
2023-02-13T07:17:31.539Z,21.05
2023-02-13T07:19:57.914Z,19.75
2023-02-13T07:22:24.231Z,20.98
2023-02-13T07:24:50.571Z,18.52
2023-02-13T07:27:17.095Z,18.58
2023-02-13T07:29:43.435Z,19.02
2023-02-13T07:32:10.203Z,21.30
2023-02-13T07:34:36.613Z,21.17
2023-02-13T07:37:02.974Z,22.45
2023-02-13T07:39:31.411Z,26.13
2023-02-13T07:41:57.777Z,23.00
2023-02-13T07:44:24.217Z,20.65
2023-02-13T07:46:50.647Z,21.20
2023-02-13T07:49:17.065Z,19.23
2023-02-13T07:51:43.397Z,25.63
2023-02-13T07:54:09.745Z,19.77
2023-02-13T07:56:36.067Z,25.00
2023-02-13T07:59:02.425Z,18.15
2023-02-13T08:01:29.038Z,21.63
2023-02-13T08:03:55.467Z,23.27
2023-02-13T08:06:22.148Z,24.33
2023-02-13T08:08:48.497Z,21.95
2023-02-13T08:11:43.172Z,22.92
2023-02-13T08:14:09.618Z,17.40
2023-02-13T08:16:36.059Z,16.55
2023-02-13T08:19:02.414Z,23.40
2023-02-13T08:21:28.818Z,23.00
2023-02-13T08:23:55.183Z,27.23
2023-02-13T08:26:21.498Z,23.15
2023-02-13T08:28:47.887Z,21.45
2023-02-13T08:31:14.317Z,24.58
2023-02-13T08:33:41.468Z,24.63
2023-02-13T08:36:08.350Z,30.98
2023-02-13T08:38:34.767Z,26.70
2023-02-13T08:41:01.173Z,22.63
2023-02-13T08:43:27.505Z,20.92
2023-02-13T08:45:53.919Z,23.40
2023-02-13T08:48:20.310Z,24.30
2023-02-13T08:50:46.660Z,24.70
2023-02-13T08:53:12.991Z,21.65
2023-02-13T08:55:39.307Z,20.55
2023-02-13T08:58:05.980Z,26.65
2023-02-13T09:00:33.125Z,23.23
2023-02-13T09:03:04.076Z,20.90
2023-02-13T09:05:31.536Z,20.85
2023-02-13T09:08:02.644Z,21.52
2023-02-13T09:10:30.095Z,21.00
2023-02-13T09:12:56.545Z,18.27
2023-02-13T09:15:22.889Z,20.88
2023-02-13T09:17:49.290Z,17.52
2023-02-13T09:20:15.775Z,22.33
2023-02-13T09:22:42.126Z,20.92
2023-02-13T09:25:09.174Z,16.77
2023-02-13T09:27:37.192Z,20.73
2023-02-13T09:32:29.953Z,18.13
2023-02-13T09:34:56.373Z,17.23
2023-02-13T09:37:23.414Z,19.45
2023-02-13T09:39:49.881Z,16.35
2023-02-13T09:42:25.329Z,20.55
2023-02-13T09:44:53.709Z,22.58
2023-02-13T09:47:32.449Z,18.30
2023-02-13T09:50:03.734Z,10.00
2023-02-13T09:52:33.731Z,18.30
2023-02-13T09:55:01.729Z,16.80
2023-02-13T09:57:35.966Z,17.27
2023-02-13T10:00:20.795Z,16.75
2023-02-13T10:02:59.639Z,18.38
2023-02-13T10:05:48.017Z,17.55
2023-02-13T10:08:40.447Z,15.90
2023-02-13T10:11:22.508Z,18.63
2023-02-13T10:14:00.908Z,14.77
2023-02-13T10:16:35.837Z,15.95
2023-02-13T10:19:14.541Z,17.10
2023-02-13T10:21:50.836Z,19.60
2023-02-13T10:24:30.460Z,13.73
2023-02-13T10:26:58.005Z,22.65
2023-02-13T10:29:55.660Z,15.43
2023-02-13T10:32:31.523Z,17.85
2023-02-13T10:34:59.449Z,13.18
2023-02-13T10:39:57.168Z,15.13
2023-02-13T10:42:28.915Z,15.40
2023-02-13T10:45:03.420Z,14.80
2023-02-13T10:47:36.244Z,11.02
2023-02-13T10:50:22.985Z,13.80
2023-02-13T10:53:16.984Z,15.75
2023-02-13T10:55:43.243Z,13.52
2023-02-13T10:58:17.514Z,12.77
2023-02-13T11:03:24.687Z,15.35
2023-02-13T11:05:52.159Z,13.43
2023-02-13T11:08:22.937Z,12.98
2023-02-13T11:10:50.097Z,12.05
2023-02-13T11:13:21.588Z,12.43
2023-02-13T11:16:10.324Z,14.05
2023-02-13T11:18:39.873Z,15.25
2023-02-13T11:21:11.511Z,13.98
2023-02-13T11:23:41.065Z,11.68
2023-02-13T11:26:10.592Z,16.05
2023-02-13T11:28:44.883Z,12.85
2023-02-13T11:31:29.775Z,13.88
2023-02-13T11:33:58.970Z,15.40
2023-02-13T11:36:28.716Z,12.20
2023-02-13T11:39:07.443Z,13.02
2023-02-13T11:41:41.062Z,11.75
2023-02-13T11:44:31.353Z,15.75
2023-02-13T11:47:00.396Z,15.00
2023-02-13T11:49:28.664Z,13.98
2023-02-13T11:51:56.674Z,15.95
2023-02-13T11:54:45.457Z,11.93
2023-02-13T11:57:29.720Z,13.63
2023-02-13T11:59:57.219Z,12.15
2023-02-13T12:02:24.731Z,13.40
2023-02-13T12:05:11.580Z,14.25
2023-02-13T12:07:38.109Z,15.05
2023-02-13T12:10:22.656Z,13.35
2023-02-13T12:12:55.067Z,12.23
2023-02-13T12:15:21.283Z,12.25
2023-02-13T12:17:54.947Z,11.75
2023-02-13T12:20:21.480Z,15.10
2023-02-13T12:22:56.767Z,12.32
2023-02-13T12:25:35.183Z,12.63
2023-02-13T12:28:11.765Z,12.10
2023-02-13T12:31:08.230Z,11.45
2023-02-13T12:34:09.981Z,12.95
2023-02-13T12:36:49.965Z,13.60
2023-02-13T12:39:30.413Z,13.75
2023-02-13T12:42:18.290Z,13.77
2023-02-13T12:44:50.637Z,12.90
2023-02-13T12:47:20.284Z,14.93
2023-02-13T12:50:15.095Z,15.55
2023-02-13T12:53:09.367Z,10.13
2023-02-13T12:55:58.468Z,11.02
2023-02-13T12:58:39.098Z,12.07
2023-02-13T13:01:23.533Z,10.18
2023-02-13T13:04:23.803Z,11.85
2023-02-13T13:07:08.331Z,9.20
2023-02-13T13:09:40.885Z,9.77
2023-02-13T13:12:39.303Z,10.70
2023-02-13T13:15:28.891Z,9.35
2023-02-13T13:18:15.755Z,10.73
2023-02-13T13:23:20.781Z,12.38
2023-02-13T13:26:31.898Z,10.52
2023-02-13T13:29:00.102Z,10.23
2023-02-13T13:31:30.562Z,8.27
2023-02-13T13:34:01.173Z,9.48
2023-02-13T13:36:51.269Z,9.25
2023-02-13T13:39:52.355Z,9.90
2023-02-13T13:42:40.989Z,8.82
2023-02-13T13:45:20.421Z,8.98
2023-02-13T13:48:01.252Z,8.88
2023-02-13T13:50:30.410Z,8.48
2023-02-13T13:53:08.896Z,7.78
2023-02-13T13:55:49.692Z,8.82
2023-02-13T13:58:28.474Z,8.15
2023-02-13T14:01:22.096Z,9.35
2023-02-13T14:04:21.314Z,8.57
2023-02-13T14:06:47.530Z,7.05
2023-02-13T14:09:39.814Z,7.85
2023-02-13T14:12:24.672Z,9.27
2023-02-13T14:14:52.575Z,6.55
2023-02-13T14:17:43.786Z,8.82
2023-02-13T14:20:34.512Z,6.18
2023-02-13T14:23:50.172Z,7.50
2023-02-13T14:26:16.458Z,7.15
2023-02-13T14:28:56.564Z,5.50
2023-02-13T14:31:34.762Z,5.72
2023-02-13T14:34:22.967Z,4.40
2023-02-13T14:37:05.311Z,3.65
2023-02-13T14:39:35.681Z,3.28
2023-02-13T14:42:04.007Z,3.92
2023-02-13T14:44:49.603Z,3.97
2023-02-13T14:47:40.289Z,4.55
2023-02-13T14:50:07.648Z,4.75
2023-02-13T14:52:43.016Z,4.97
2023-02-13T14:55:32.154Z,4.00
2023-02-13T14:58:07.675Z,4.65
2023-02-13T15:00:46.347Z,3.75
2023-02-13T15:03:36.110Z,5.13
2023-02-13T15:06:05.899Z,3.85
2023-02-13T15:08:34.976Z,3.90
2023-02-13T15:11:01.315Z,3.50
2023-02-13T15:13:33.918Z,4.40
2023-02-13T15:16:26.280Z,3.90
2023-02-13T15:18:54.199Z,2.95
2023-02-13T15:21:22.926Z,3.65
2023-02-13T15:23:55.488Z,3.08
2023-02-13T15:26:24.183Z,3.55
2023-02-13T15:29:11.372Z,2.85
2023-02-13T15:31:40.508Z,4.45
2023-02-13T15:34:21.047Z,3.60
2023-02-13T15:36:47.926Z,4.55
2023-02-13T15:39:20.451Z,3.72
2023-02-13T15:41:52.249Z,3.63
2023-02-13T15:44:21.102Z,4.55
2023-02-13T15:46:48.585Z,3.17
2023-02-13T15:49:23.012Z,3.83
2023-02-13T15:51:49.878Z,3.28
2023-02-13T15:54:30.966Z,4.22
2023-02-13T15:57:00.088Z,4.07
2023-02-13T15:59:31.378Z,5.90
2023-02-13T16:01:59.102Z,4.70
2023-02-13T16:04:25.591Z,3.22
2023-02-13T16:06:54.078Z,4.07
2023-02-13T16:09:34.515Z,2.97
2023-02-13T16:14:36.660Z,3.35
2023-02-13T16:17:05.476Z,3.88
2023-02-13T16:19:55.079Z,3.53
2023-02-13T16:22:37.908Z,3.80
2023-02-13T16:25:14.035Z,4.57
2023-02-13T16:27:47.120Z,4.57
2023-02-13T16:30:33.364Z,4.45
2023-02-13T16:33:21.803Z,3.92
2023-02-13T16:35:55.000Z,6.65
2023-02-13T16:38:35.230Z,4.05
2023-02-13T16:41:17.702Z,4.53
2023-02-13T16:43:47.671Z,3.83
2023-02-13T16:46:18.941Z,3.75
2023-02-13T16:48:55.917Z,4.65
2023-02-13T16:51:33.385Z,4.53
2023-02-13T16:54:01.965Z,5.13
2023-02-13T16:56:28.453Z,4.15
2023-02-13T16:59:25.827Z,3.33
2023-02-13T17:02:17.225Z,4.43
2023-02-13T17:04:45.678Z,4.40
2023-02-13T17:07:14.327Z,4.95
2023-02-13T17:09:40.735Z,6.45
2023-02-13T17:12:16.115Z,8.05
2023-02-13T17:14:42.765Z,7.45
2023-02-13T17:17:20.208Z,6.07
2023-02-13T17:19:46.943Z,6.18
2023-02-13T17:22:21.847Z,4.93
2023-02-13T17:24:48.415Z,4.78
2023-02-13T17:27:14.832Z,4.55
2023-02-13T17:29:41.208Z,4.47
2023-02-13T17:32:10.082Z,4.97
2023-02-13T17:34:36.528Z,4.63
2023-02-13T17:37:02.909Z,6.43
2023-02-13T17:39:29.256Z,4.82
2023-02-13T17:41:55.589Z,5.75
2023-02-13T17:44:21.900Z,5.75
2023-02-13T17:46:48.240Z,9.32
2023-02-13T17:49:14.992Z,6.38
2023-02-13T17:51:41.452Z,7.38
2023-02-13T17:54:10.230Z,6.25
2023-02-13T17:56:36.591Z,6.70
2023-02-13T17:59:02.900Z,13.48
2023-02-13T18:01:29.233Z,4.68
2023-02-13T18:03:55.638Z,6.88
2023-02-13T18:06:22.032Z,5.70
2023-02-13T18:08:48.386Z,8.70
2023-02-13T18:11:14.735Z,7.80
2023-02-13T18:13:47.834Z,6.20
2023-02-13T18:16:15.084Z,11.50
2023-02-13T18:18:41.439Z,12.77
2023-02-13T18:21:07.798Z,14.00
2023-02-13T18:23:34.306Z,14.43
2023-02-13T18:26:05.507Z,13.32
2023-02-13T18:28:31.878Z,15.05
2023-02-13T18:30:58.688Z,13.18
2023-02-13T18:33:25.344Z,16.25
2023-02-13T18:35:51.748Z,11.43
2023-02-13T18:38:18.120Z,7.32
2023-02-13T18:40:44.466Z,6.95
2023-02-13T18:43:10.821Z,8.80
2023-02-13T18:45:37.208Z,7.93
2023-02-13T18:48:03.630Z,8.50
2023-02-13T18:50:30.020Z,8.18
2023-02-13T18:52:56.368Z,6.68
2023-02-13T18:55:22.708Z,7.78
2023-02-13T18:57:52.382Z,10.93
2023-02-13T19:00:19.840Z,9.45
2023-02-13T19:02:46.435Z,9.85
2023-02-13T19:05:12.853Z,11.60
2023-02-13T19:07:39.302Z,9.32
2023-02-13T19:10:06.937Z,10.73
2023-02-13T19:12:33.328Z,8.88
2023-02-13T19:14:59.661Z,10.25
2023-02-13T19:17:26.072Z,11.85
2023-02-13T19:19:52.499Z,11.32
2023-02-13T19:22:18.947Z,10.15
2023-02-13T19:24:45.326Z,10.70
2023-02-13T19:27:11.912Z,11.13
2023-02-13T19:29:38.255Z,9.73
2023-02-13T19:32:04.654Z,12.82
2023-02-13T19:34:31.074Z,13.48
2023-02-13T19:36:57.432Z,15.40
2023-02-13T19:39:23.821Z,13.25
2023-02-13T19:41:50.149Z,9.77
2023-02-13T19:44:16.541Z,12.70
2023-02-13T19:46:43.309Z,11.68
2023-02-13T19:49:09.961Z,12.05
2023-02-13T19:51:36.557Z,13.85
2023-02-13T19:54:07.916Z,9.35
2023-02-13T19:56:37.209Z,15.40
2023-02-13T19:59:04.651Z,11.27
2023-02-13T20:01:31.400Z,13.65
2023-02-13T20:03:57.850Z,12.55
2023-02-13T20:06:27.676Z,13.68
2023-02-13T20:08:54.305Z,11.38
2023-02-13T20:11:22.414Z,11.32
2023-02-13T20:13:52.900Z,11.50
2023-02-13T20:16:19.371Z,11.80
2023-02-13T20:18:45.769Z,12.65
2023-02-13T20:21:14.379Z,14.57
2023-02-13T20:23:41.774Z,11.32
2023-02-13T20:26:10.989Z,9.68
2023-02-13T20:28:38.271Z,10.77
2023-02-13T20:31:20.177Z,12.20
2023-02-13T20:33:47.105Z,11.98
2023-02-13T20:36:32.361Z,12.60
2023-02-13T20:39:03.874Z,11.25
2023-02-13T20:41:35.590Z,10.75
2023-02-13T20:44:07.946Z,12.80
2023-02-13T20:46:36.214Z,12.32
2023-02-13T20:49:02.929Z,14.95
2023-02-13T20:51:29.542Z,12.52
2023-02-13T20:53:56.365Z,14.07
2023-02-13T20:56:24.478Z,15.65
2023-02-13T20:58:52.328Z,12.23
2023-02-13T21:01:24.678Z,14.07
2023-02-13T21:03:54.981Z,13.65
2023-02-13T21:06:33.316Z,15.35
2023-02-13T21:09:00.325Z,12.93
2023-02-13T21:11:28.312Z,10.85
2023-02-13T21:16:25.406Z,12.35
2023-02-13T21:18:54.611Z,14.50
2023-02-13T21:21:26.043Z,13.00
2023-02-13T21:23:53.381Z,14.43
2023-02-13T21:26:20.032Z,13.73
2023-02-13T21:28:47.662Z,14.63
2023-02-13T21:31:44.240Z,12.85
2023-02-13T21:34:12.107Z,16.58
2023-02-13T21:36:39.163Z,14.18
2023-02-13T21:39:07.659Z,16.20
2023-02-13T21:41:34.239Z,13.63
2023-02-13T21:44:00.684Z,12.93
2023-02-13T21:46:29.129Z,13.43
2023-02-13T21:48:57.964Z,14.95
2023-02-13T21:51:25.752Z,14.85
2023-02-13T21:53:52.665Z,13.95
2023-02-13T21:56:25.190Z,12.63
2023-02-13T21:58:52.049Z,14.30
2023-02-13T22:01:26.492Z,14.38
2023-02-13T22:04:00.307Z,14.13
2023-02-13T22:06:31.692Z,14.20
2023-02-13T22:09:13.085Z,15.52
2023-02-13T22:11:39.937Z,13.50
2023-02-13T22:14:07.855Z,14.98
2023-02-13T22:16:36.534Z,14.18
2023-02-13T22:19:03.724Z,14.07
2023-02-13T22:21:31.639Z,17.67
2023-02-13T22:23:58.215Z,18.40
2023-02-13T22:26:27.240Z,14.45
2023-02-13T22:28:54.621Z,15.40
2023-02-13T22:31:25.273Z,13.90
2023-02-13T22:34:02.953Z,16.23
2023-02-13T22:36:30.210Z,13.13
2023-02-13T22:38:56.580Z,15.75
2023-02-13T22:41:24.793Z,18.35
2023-02-13T22:43:51.961Z,14.98
2023-02-13T22:46:20.789Z,16.67
2023-02-13T22:48:47.812Z,16.15
2023-02-13T22:51:19.529Z,17.55
2023-02-13T22:53:48.013Z,21.10
2023-02-13T22:56:14.433Z,18.35
2023-02-13T22:58:40.941Z,21.65
2023-02-13T23:01:15.878Z,20.85
2023-02-13T23:03:42.469Z,18.92
2023-02-13T23:06:10.333Z,18.33
2023-02-13T23:08:37.122Z,18.88
2023-02-13T23:11:27.350Z,20.55
2023-02-13T23:13:53.747Z,15.38
2023-02-13T23:16:20.138Z,18.67
2023-02-13T23:18:54.288Z,21.42
2023-02-13T23:21:21.339Z,20.25
2023-02-13T23:23:47.916Z,18.33
2023-02-13T23:26:14.263Z,14.98
2023-02-13T23:28:40.646Z,17.05
2023-02-13T23:31:07.177Z,21.25
2023-02-13T23:33:33.600Z,18.45
2023-02-13T23:35:59.999Z,21.25
2023-02-13T23:38:26.411Z,21.65
2023-02-13T23:40:52.802Z,21.27
2023-02-13T23:43:19.171Z,20.63
2023-02-13T23:45:46.054Z,16.90
2023-02-13T23:48:12.730Z,23.65
2023-02-13T23:50:40.133Z,20.60
2023-02-13T23:53:06.579Z,23.25
2023-02-13T23:55:32.933Z,18.67
2023-02-13T23:57:59.287Z,23.50
